sensor_id;sensor_type;location;lat;lon;timestamp;P1;durP1;ratioP1;P2;durP2;ratioP2
22812;SDS011;11573;51.334;3.244;2023-07-29T00:01:57;6.38;;;4.38;;
22812;SDS011;11573;51.334;3.244;2023-07-29T00:04:24;9.38;;;5.15;;
22812;SDS011;11573;51.334;3.244;2023-07-29T00:06:51;6.43;;;4.20;;
22812;SDS011;11573;51.334;3.244;2023-07-29T00:09:18;8.18;;;5.00;;
22812;SDS011;11573;51.334;3.244;2023-07-29T00:11:45;8.73;;;4.47;;
22812;SDS011;11573;51.334;3.244;2023-07-29T00:14:12;9.68;;;4.25;;
22812;SDS011;11573;51.334;3.244;2023-07-29T00:16:39;8.75;;;4.55;;
22812;SDS011;11573;51.334;3.244;2023-07-29T00:19:06;10.73;;;4.95;;
22812;SDS011;11573;51.334;3.244;2023-07-29T00:21:33;7.38;;;4.03;;
22812;SDS011;11573;51.334;3.244;2023-07-29T00:24:00;8.23;;;4.20;;
22812;SDS011;11573;51.334;3.244;2023-07-29T00:26:27;6.57;;;4.50;;
22812;SDS011;11573;51.334;3.244;2023-07-29T00:28:57;9.95;;;5.15;;
22812;SDS011;11573;51.334;3.244;2023-07-29T00:31:24;6.57;;;4.57;;
22812;SDS011;11573;51.334;3.244;2023-07-29T00:33:51;5.47;;;3.70;;
22812;SDS011;11573;51.334;3.244;2023-07-29T00:36:19;8.07;;;4.57;;
22812;SDS011;11573;51.334;3.244;2023-07-29T00:38:46;6.57;;;4.50;;
22812;SDS011;11573;51.334;3.244;2023-07-29T00:41:14;7.05;;;4.78;;
22812;SDS011;11573;51.334;3.244;2023-07-29T00:43:42;8.82;;;4.88;;
22812;SDS011;11573;51.334;3.244;2023-07-29T00:46:09;6.78;;;4.50;;
22812;SDS011;11573;51.334;3.244;2023-07-29T00:48:36;7.47;;;4.85;;
22812;SDS011;11573;51.334;3.244;2023-07-29T00:51:04;10.85;;;5.28;;
22812;SDS011;11573;51.334;3.244;2023-07-29T00:53:32;8.00;;;4.60;;
22812;SDS011;11573;51.334;3.244;2023-07-29T00:55:59;8.85;;;4.97;;
22812;SDS011;11573;51.334;3.244;2023-07-29T00:58:28;10.88;;;5.05;;
22812;SDS011;11573;51.334;3.244;2023-07-29T01:00:55;9.30;;;5.28;;
22812;SDS011;11573;51.334;3.244;2023-07-29T01:03:22;8.57;;;4.97;;
22812;SDS011;11573;51.334;3.244;2023-07-29T01:06:40;10.93;;;5.28;;
22812;SDS011;11573;51.334;3.244;2023-07-29T01:09:02;9.23;;;5.18;;
22812;SDS011;11573;51.334;3.244;2023-07-29T01:16:53;8.48;;;4.80;;
22812;SDS011;11573;51.334;3.244;2023-07-29T01:19:48;9.30;;;5.18;;
22812;SDS011;11573;51.334;3.244;2023-07-29T01:22:24;8.73;;;5.07;;
22812;SDS011;11573;51.334;3.244;2023-07-29T01:24:52;9.10;;;4.90;;
22812;SDS011;11573;51.334;3.244;2023-07-29T01:27:19;8.52;;;4.80;;
22812;SDS011;11573;51.334;3.244;2023-07-29T01:29:46;12.85;;;5.63;;
22812;SDS011;11573;51.334;3.244;2023-07-29T01:32:15;11.95;;;5.10;;
22812;SDS011;11573;51.334;3.244;2023-07-29T01:34:52;7.88;;;5.20;;
22812;SDS011;11573;51.334;3.244;2023-07-29T01:37:26;7.88;;;5.55;;
22812;SDS011;11573;51.334;3.244;2023-07-29T01:39:59;10.10;;;5.97;;
22812;SDS011;11573;51.334;3.244;2023-07-29T01:42:28;10.02;;;5.32;;
22812;SDS011;11573;51.334;3.244;2023-07-29T01:44:56;10.52;;;5.25;;
22812;SDS011;11573;51.334;3.244;2023-07-29T01:47:24;11.38;;;5.45;;
22812;SDS011;11573;51.334;3.244;2023-07-29T01:49:54;8.13;;;4.95;;
22812;SDS011;11573;51.334;3.244;2023-07-29T01:52:21;11.57;;;6.10;;
22812;SDS011;11573;51.334;3.244;2023-07-29T01:54:48;9.63;;;5.55;;
22812;SDS011;11573;51.334;3.244;2023-07-29T01:57:15;12.38;;;5.60;;
22812;SDS011;11573;51.334;3.244;2023-07-29T01:59:42;9.85;;;6.82;;
22812;SDS011;11573;51.334;3.244;2023-07-29T02:02:08;10.27;;;6.57;;
22812;SDS011;11573;51.334;3.244;2023-07-29T02:04:36;11.13;;;6.82;;
22812;SDS011;11573;51.334;3.244;2023-07-29T02:07:03;10.00;;;6.60;;
22812;SDS011;11573;51.334;3.244;2023-07-29T02:09:30;11.52;;;6.60;;
22812;SDS011;11573;51.334;3.244;2023-07-29T02:11:58;9.73;;;6.93;;
22812;SDS011;11573;51.334;3.244;2023-07-29T02:14:25;10.10;;;6.30;;
22812;SDS011;11573;51.334;3.244;2023-07-29T02:16:52;10.73;;;6.55;;
22812;SDS011;11573;51.334;3.244;2023-07-29T02:19:19;10.25;;;6.10;;
22812;SDS011;11573;51.334;3.244;2023-07-29T02:21:46;12.93;;;6.45;;
22812;SDS011;11573;51.334;3.244;2023-07-29T02:24:13;11.05;;;7.15;;
22812;SDS011;11573;51.334;3.244;2023-07-29T02:26:40;12.60;;;7.00;;
22812;SDS011;11573;51.334;3.244;2023-07-29T02:29:08;11.35;;;7.10;;
22812;SDS011;11573;51.334;3.244;2023-07-29T02:31:35;11.60;;;6.55;;
22812;SDS011;11573;51.334;3.244;2023-07-29T02:34:04;10.55;;;6.85;;
22812;SDS011;11573;51.334;3.244;2023-07-29T02:36:31;12.80;;;6.45;;
22812;SDS011;11573;51.334;3.244;2023-07-29T02:38:58;8.75;;;6.00;;
22812;SDS011;11573;51.334;3.244;2023-07-29T02:41:25;11.75;;;5.97;;
22812;SDS011;11573;51.334;3.244;2023-07-29T02:43:52;9.05;;;5.85;;
22812;SDS011;11573;51.334;3.244;2023-07-29T02:46:19;11.50;;;6.32;;
22812;SDS011;11573;51.334;3.244;2023-07-29T02:48:46;11.18;;;6.10;;
22812;SDS011;11573;51.334;3.244;2023-07-29T02:51:13;9.07;;;5.68;;
22812;SDS011;11573;51.334;3.244;2023-07-29T02:53:40;12.18;;;5.90;;
22812;SDS011;11573;51.334;3.244;2023-07-29T02:56:07;9.45;;;5.90;;
22812;SDS011;11573;51.334;3.244;2023-07-29T02:58:36;11.23;;;6.05;;
22812;SDS011;11573;51.334;3.244;2023-07-29T03:01:04;12.05;;;6.25;;
22812;SDS011;11573;51.334;3.244;2023-07-29T03:03:33;9.10;;;6.10;;
22812;SDS011;11573;51.334;3.244;2023-07-29T03:06:05;8.30;;;5.40;;
22812;SDS011;11573;51.334;3.244;2023-07-29T03:08:33;7.75;;;5.47;;
22812;SDS011;11573;51.334;3.244;2023-07-29T03:11:11;9.38;;;5.68;;
22812;SDS011;11573;51.334;3.244;2023-07-29T03:13:40;7.85;;;5.38;;
22812;SDS011;11573;51.334;3.244;2023-07-29T03:16:16;8.82;;;5.40;;
22812;SDS011;11573;51.334;3.244;2023-07-29T03:18:50;9.68;;;6.32;;
22812;SDS011;11573;51.334;3.244;2023-07-29T03:21:17;10.13;;;6.00;;
22812;SDS011;11573;51.334;3.244;2023-07-29T03:23:44;11.98;;;6.43;;
22812;SDS011;11573;51.334;3.244;2023-07-29T03:26:11;11.77;;;6.40;;
22812;SDS011;11573;51.334;3.244;2023-07-29T03:28:38;9.90;;;6.05;;
22812;SDS011;11573;51.334;3.244;2023-07-29T03:31:07;12.00;;;5.85;;
22812;SDS011;11573;51.334;3.244;2023-07-29T03:33:35;14.75;;;6.45;;
22812;SDS011;11573;51.334;3.244;2023-07-29T03:36:03;9.70;;;6.05;;
22812;SDS011;11573;51.334;3.244;2023-07-29T03:38:30;10.52;;;6.07;;
22812;SDS011;11573;51.334;3.244;2023-07-29T03:40:59;12.77;;;6.28;;
22812;SDS011;11573;51.334;3.244;2023-07-29T03:43:28;10.60;;;6.10;;
22812;SDS011;11573;51.334;3.244;2023-07-29T03:45:57;11.75;;;5.53;;
22812;SDS011;11573;51.334;3.244;2023-07-29T03:48:24;9.13;;;5.70;;
22812;SDS011;11573;51.334;3.244;2023-07-29T03:50:51;9.50;;;5.55;;
22812;SDS011;11573;51.334;3.244;2023-07-29T03:53:18;8.55;;;5.70;;
22812;SDS011;11573;51.334;3.244;2023-07-29T03:55:45;11.98;;;6.13;;
22812;SDS011;11573;51.334;3.244;2023-07-29T03:58:13;7.78;;;5.82;;
22812;SDS011;11573;51.334;3.244;2023-07-29T04:00:40;10.63;;;5.32;;
22812;SDS011;11573;51.334;3.244;2023-07-29T04:03:08;6.68;;;5.07;;
22812;SDS011;11573;51.334;3.244;2023-07-29T04:05:35;9.93;;;5.78;;
22812;SDS011;11573;51.334;3.244;2023-07-29T04:08:02;11.40;;;5.68;;
22812;SDS011;11573;51.334;3.244;2023-07-29T04:10:29;7.28;;;5.10;;
22812;SDS011;11573;51.334;3.244;2023-07-29T04:12:58;9.25;;;5.35;;
22812;SDS011;11573;51.334;3.244;2023-07-29T04:15:25;9.55;;;5.57;;
22812;SDS011;11573;51.334;3.244;2023-07-29T04:17:52;6.68;;;4.97;;
22812;SDS011;11573;51.334;3.244;2023-07-29T04:20:19;7.30;;;5.18;;
22812;SDS011;11573;51.334;3.244;2023-07-29T04:22:46;7.60;;;5.45;;
22812;SDS011;11573;51.334;3.244;2023-07-29T04:25:13;10.63;;;5.57;;
22812;SDS011;11573;51.334;3.244;2023-07-29T04:27:40;8.23;;;4.82;;
22812;SDS011;11573;51.334;3.244;2023-07-29T04:30:07;7.85;;;5.72;;
22812;SDS011;11573;51.334;3.244;2023-07-29T04:32:35;14.48;;;6.07;;
22812;SDS011;11573;51.334;3.244;2023-07-29T04:35:06;10.63;;;5.35;;
22812;SDS011;11573;51.334;3.244;2023-07-29T04:37:35;10.82;;;5.65;;
22812;SDS011;11573;51.334;3.244;2023-07-29T04:40:02;12.10;;;6.15;;
22812;SDS011;11573;51.334;3.244;2023-07-29T04:42:30;10.35;;;5.90;;
22812;SDS011;11573;51.334;3.244;2023-07-29T04:44:57;11.30;;;5.50;;
22812;SDS011;11573;51.334;3.244;2023-07-29T04:47:24;11.95;;;6.10;;
22812;SDS011;11573;51.334;3.244;2023-07-29T04:49:52;8.57;;;5.20;;
22812;SDS011;11573;51.334;3.244;2023-07-29T04:52:20;8.63;;;5.32;;
22812;SDS011;11573;51.334;3.244;2023-07-29T04:54:48;8.70;;;5.28;;
22812;SDS011;11573;51.334;3.244;2023-07-29T04:57:15;8.73;;;5.20;;
22812;SDS011;11573;51.334;3.244;2023-07-29T04:59:42;10.10;;;5.32;;
22812;SDS011;11573;51.334;3.244;2023-07-29T05:02:09;9.93;;;5.45;;
22812;SDS011;11573;51.334;3.244;2023-07-29T05:04:36;12.73;;;5.63;;
22812;SDS011;11573;51.334;3.244;2023-07-29T05:07:03;8.23;;;4.95;;
22812;SDS011;11573;51.334;3.244;2023-07-29T05:09:30;9.15;;;5.13;;
22812;SDS011;11573;51.334;3.244;2023-07-29T05:11:57;9.77;;;5.10;;
22812;SDS011;11573;51.334;3.244;2023-07-29T05:14:24;10.02;;;4.50;;
22812;SDS011;11573;51.334;3.244;2023-07-29T05:16:51;8.07;;;4.38;;
22812;SDS011;11573;51.334;3.244;2023-07-29T05:19:18;9.00;;;4.68;;
22812;SDS011;11573;51.334;3.244;2023-07-29T05:21:45;8.32;;;5.00;;
22812;SDS011;11573;51.334;3.244;2023-07-29T05:24:13;9.85;;;4.65;;
22812;SDS011;11573;51.334;3.244;2023-07-29T05:26:40;12.50;;;5.13;;
22812;SDS011;11573;51.334;3.244;2023-07-29T05:29:07;10.77;;;5.32;;
22812;SDS011;11573;51.334;3.244;2023-07-29T05:31:34;7.85;;;5.28;;
22812;SDS011;11573;51.334;3.244;2023-07-29T05:34:01;8.55;;;5.43;;
22812;SDS011;11573;51.334;3.244;2023-07-29T05:36:28;7.97;;;5.07;;
22812;SDS011;11573;51.334;3.244;2023-07-29T05:38:55;10.18;;;5.25;;
22812;SDS011;11573;51.334;3.244;2023-07-29T05:41:22;8.32;;;4.85;;
22812;SDS011;11573;51.334;3.244;2023-07-29T05:43:50;8.18;;;5.07;;
22812;SDS011;11573;51.334;3.244;2023-07-29T05:46:17;9.85;;;4.60;;
22812;SDS011;11573;51.334;3.244;2023-07-29T05:48:44;8.13;;;4.43;;
22812;SDS011;11573;51.334;3.244;2023-07-29T05:51:11;7.88;;;4.40;;
22812;SDS011;11573;51.334;3.244;2023-07-29T05:53:39;8.20;;;3.65;;
22812;SDS011;11573;51.334;3.244;2023-07-29T05:56:06;7.15;;;4.28;;
22812;SDS011;11573;51.334;3.244;2023-07-29T05:58:33;8.77;;;4.07;;
22812;SDS011;11573;51.334;3.244;2023-07-29T06:01:00;4.82;;;4.15;;
22812;SDS011;11573;51.334;3.244;2023-07-29T06:03:27;9.27;;;4.18;;
22812;SDS011;11573;51.334;3.244;2023-07-29T06:05:54;5.85;;;4.20;;
22812;SDS011;11573;51.334;3.244;2023-07-29T06:08:21;8.38;;;4.15;;
22812;SDS011;11573;51.334;3.244;2023-07-29T06:10:48;6.00;;;4.50;;
22812;SDS011;11573;51.334;3.244;2023-07-29T06:13:15;6.78;;;4.10;;
22812;SDS011;11573;51.334;3.244;2023-07-29T06:15:42;9.05;;;4.30;;
22812;SDS011;11573;51.334;3.244;2023-07-29T06:18:10;5.72;;;4.18;;
22812;SDS011;11573;51.334;3.244;2023-07-29T06:20:37;6.97;;;4.32;;
22812;SDS011;11573;51.334;3.244;2023-07-29T06:23:05;10.18;;;3.97;;
22812;SDS011;11573;51.334;3.244;2023-07-29T06:25:32;8.43;;;3.88;;
22812;SDS011;11573;51.334;3.244;2023-07-29T06:27:59;4.22;;;3.75;;
22812;SDS011;11573;51.334;3.244;2023-07-29T06:30:26;6.28;;;4.35;;
22812;SDS011;11573;51.334;3.244;2023-07-29T06:32:53;6.80;;;4.03;;
22812;SDS011;11573;51.334;3.244;2023-07-29T06:35:21;10.68;;;4.20;;
22812;SDS011;11573;51.334;3.244;2023-07-29T06:37:48;5.40;;;4.10;;
22812;SDS011;11573;51.334;3.244;2023-07-29T06:40:15;10.02;;;4.00;;
22812;SDS011;11573;51.334;3.244;2023-07-29T06:42:42;7.20;;;4.30;;
22812;SDS011;11573;51.334;3.244;2023-07-29T06:45:09;7.10;;;4.03;;
22812;SDS011;11573;51.334;3.244;2023-07-29T06:47:36;9.05;;;4.10;;
22812;SDS011;11573;51.334;3.244;2023-07-29T06:50:04;7.32;;;4.22;;
22812;SDS011;11573;51.334;3.244;2023-07-29T06:52:31;6.53;;;3.53;;
22812;SDS011;11573;51.334;3.244;2023-07-29T06:54:58;5.70;;;3.50;;
22812;SDS011;11573;51.334;3.244;2023-07-29T06:57:25;6.45;;;3.72;;
22812;SDS011;11573;51.334;3.244;2023-07-29T06:59:52;5.70;;;2.65;;
22812;SDS011;11573;51.334;3.244;2023-07-29T07:02:19;4.63;;;3.22;;
22812;SDS011;11573;51.334;3.244;2023-07-29T07:04:46;4.57;;;3.42;;
22812;SDS011;11573;51.334;3.244;2023-07-29T07:07:13;6.05;;;2.70;;
22812;SDS011;11573;51.334;3.244;2023-07-29T07:09:40;4.65;;;3.25;;
22812;SDS011;11573;51.334;3.244;2023-07-29T07:12:07;5.50;;;2.70;;
22812;SDS011;11573;51.334;3.244;2023-07-29T07:14:34;5.30;;;2.92;;
22812;SDS011;11573;51.334;3.244;2023-07-29T07:17:01;4.72;;;2.70;;
22812;SDS011;11573;51.334;3.244;2023-07-29T07:19:28;4.93;;;2.85;;
22812;SDS011;11573;51.334;3.244;2023-07-29T07:21:55;5.75;;;2.88;;
22812;SDS011;11573;51.334;3.244;2023-07-29T07:24:22;4.47;;;3.13;;
22812;SDS011;11573;51.334;3.244;2023-07-29T07:26:49;3.95;;;2.97;;
22812;SDS011;11573;51.334;3.244;2023-07-29T07:29:15;5.32;;;2.80;;
22812;SDS011;11573;51.334;3.244;2023-07-29T07:31:47;5.07;;;2.78;;
22812;SDS011;11573;51.334;3.244;2023-07-29T07:34:20;6.32;;;2.90;;
22812;SDS011;11573;51.334;3.244;2023-07-29T07:36:47;3.33;;;2.67;;
22812;SDS011;11573;51.334;3.244;2023-07-29T07:39:14;4.00;;;2.72;;
22812;SDS011;11573;51.334;3.244;2023-07-29T07:41:41;4.80;;;2.97;;
22812;SDS011;11573;51.334;3.244;2023-07-29T07:44:09;5.38;;;3.20;;
22812;SDS011;11573;51.334;3.244;2023-07-29T07:46:37;5.82;;;3.08;;
22812;SDS011;11573;51.334;3.244;2023-07-29T07:49:04;3.30;;;2.78;;
22812;SDS011;11573;51.334;3.244;2023-07-29T07:51:31;5.93;;;3.10;;
22812;SDS011;11573;51.334;3.244;2023-07-29T07:53:58;5.95;;;3.00;;
22812;SDS011;11573;51.334;3.244;2023-07-29T07:56:25;5.90;;;3.20;;
22812;SDS011;11573;51.334;3.244;2023-07-29T07:58:52;6.20;;;3.47;;
22812;SDS011;11573;51.334;3.244;2023-07-29T08:01:19;6.32;;;2.83;;
22812;SDS011;11573;51.334;3.244;2023-07-29T08:03:46;5.47;;;2.83;;
22812;SDS011;11573;51.334;3.244;2023-07-29T08:06:13;4.60;;;2.40;;
22812;SDS011;11573;51.334;3.244;2023-07-29T08:08:40;10.35;;;2.80;;
22812;SDS011;11573;51.334;3.244;2023-07-29T08:11:07;4.10;;;2.63;;
22812;SDS011;11573;51.334;3.244;2023-07-29T08:13:34;4.90;;;2.85;;
22812;SDS011;11573;51.334;3.244;2023-07-29T08:16:01;4.13;;;2.70;;
22812;SDS011;11573;51.334;3.244;2023-07-29T08:18:28;3.70;;;2.60;;
22812;SDS011;11573;51.334;3.244;2023-07-29T08:20:56;4.40;;;3.00;;
22812;SDS011;11573;51.334;3.244;2023-07-29T08:23:24;4.85;;;3.72;;
22812;SDS011;11573;51.334;3.244;2023-07-29T08:25:52;5.70;;;3.30;;
22812;SDS011;11573;51.334;3.244;2023-07-29T08:28:22;4.93;;;3.63;;
22812;SDS011;11573;51.334;3.244;2023-07-29T08:30:50;6.50;;;3.17;;
22812;SDS011;11573;51.334;3.244;2023-07-29T08:33:17;6.15;;;3.63;;
22812;SDS011;11573;51.334;3.244;2023-07-29T08:35:44;7.60;;;3.30;;
22812;SDS011;11573;51.334;3.244;2023-07-29T08:38:11;7.25;;;3.33;;
22812;SDS011;11573;51.334;3.244;2023-07-29T08:40:42;4.57;;;3.35;;
22812;SDS011;11573;51.334;3.244;2023-07-29T08:43:29;7.97;;;3.80;;
22812;SDS011;11573;51.334;3.244;2023-07-29T08:46:00;6.57;;;3.90;;
22812;SDS011;11573;51.334;3.244;2023-07-29T08:48:37;10.20;;;4.15;;
22812;SDS011;11573;51.334;3.244;2023-07-29T08:51:08;8.27;;;4.28;;
22812;SDS011;11573;51.334;3.244;2023-07-29T08:53:36;7.82;;;4.60;;
22812;SDS011;11573;51.334;3.244;2023-07-29T08:56:04;7.95;;;4.88;;
22812;SDS011;11573;51.334;3.244;2023-07-29T08:58:33;13.15;;;5.28;;
22812;SDS011;11573;51.334;3.244;2023-07-29T09:01:01;8.23;;;5.60;;
22812;SDS011;11573;51.334;3.244;2023-07-29T09:03:28;12.45;;;5.45;;
22812;SDS011;11573;51.334;3.244;2023-07-29T09:05:55;9.15;;;5.00;;
22812;SDS011;11573;51.334;3.244;2023-07-29T09:08:25;11.43;;;5.10;;
22812;SDS011;11573;51.334;3.244;2023-07-29T09:10:53;12.75;;;5.82;;
22812;SDS011;11573;51.334;3.244;2023-07-29T09:13:21;9.63;;;5.70;;
22812;SDS011;11573;51.334;3.244;2023-07-29T09:15:48;12.80;;;5.85;;
22812;SDS011;11573;51.334;3.244;2023-07-29T09:18:16;10.95;;;5.05;;
22812;SDS011;11573;51.334;3.244;2023-07-29T09:20:46;8.48;;;5.85;;
22812;SDS011;11573;51.334;3.244;2023-07-29T09:23:14;7.55;;;5.28;;
22812;SDS011;11573;51.334;3.244;2023-07-29T09:25:42;7.00;;;4.95;;
22812;SDS011;11573;51.334;3.244;2023-07-29T09:28:11;6.63;;;5.00;;
22812;SDS011;11573;51.334;3.244;2023-07-29T09:30:39;7.25;;;5.50;;
22812;SDS011;11573;51.334;3.244;2023-07-29T09:33:09;11.13;;;5.40;;
22812;SDS011;11573;51.334;3.244;2023-07-29T09:35:37;5.88;;;4.22;;
22812;SDS011;11573;51.334;3.244;2023-07-29T09:38:05;7.90;;;4.57;;
22812;SDS011;11573;51.334;3.244;2023-07-29T09:40:37;4.35;;;3.65;;
22812;SDS011;11573;51.334;3.244;2023-07-29T09:43:05;4.93;;;3.63;;
22812;SDS011;11573;51.334;3.244;2023-07-29T09:45:33;6.90;;;2.88;;
22812;SDS011;11573;51.334;3.244;2023-07-29T09:48:02;4.50;;;3.20;;
22812;SDS011;11573;51.334;3.244;2023-07-29T09:50:31;3.03;;;2.80;;
22812;SDS011;11573;51.334;3.244;2023-07-29T09:52:58;3.75;;;2.60;;
22812;SDS011;11573;51.334;3.244;2023-07-29T09:55:25;3.65;;;2.80;;
22812;SDS011;11573;51.334;3.244;2023-07-29T09:57:53;5.20;;;2.92;;
22812;SDS011;11573;51.334;3.244;2023-07-29T10:00:23;6.72;;;3.13;;
22812;SDS011;11573;51.334;3.244;2023-07-29T10:02:50;5.97;;;3.47;;
22812;SDS011;11573;51.334;3.244;2023-07-29T10:05:18;3.60;;;3.30;;
22812;SDS011;11573;51.334;3.244;2023-07-29T10:07:46;3.92;;;3.42;;
22812;SDS011;11573;51.334;3.244;2023-07-29T10:10:14;4.50;;;3.60;;
22812;SDS011;11573;51.334;3.244;2023-07-29T10:12:43;5.38;;;3.35;;
22812;SDS011;11573;51.334;3.244;2023-07-29T10:15:10;6.25;;;3.50;;
22812;SDS011;11573;51.334;3.244;2023-07-29T10:17:37;6.43;;;3.72;;
22812;SDS011;11573;51.334;3.244;2023-07-29T10:20:06;5.60;;;4.28;;
22812;SDS011;11573;51.334;3.244;2023-07-29T10:22:41;7.88;;;4.20;;
22812;SDS011;11573;51.334;3.244;2023-07-29T10:25:12;5.93;;;4.03;;
22812;SDS011;11573;51.334;3.244;2023-07-29T10:30:14;6.00;;;4.00;;
22812;SDS011;11573;51.334;3.244;2023-07-29T10:32:42;5.10;;;3.50;;
22812;SDS011;11573;51.334;3.244;2023-07-29T10:35:12;3.95;;;3.20;;
22812;SDS011;11573;51.334;3.244;2023-07-29T10:37:39;6.00;;;2.83;;
22812;SDS011;11573;51.334;3.244;2023-07-29T10:40:09;4.57;;;2.55;;
22812;SDS011;11573;51.334;3.244;2023-07-29T10:42:38;5.55;;;2.75;;
22812;SDS011;11573;51.334;3.244;2023-07-29T10:45:20;5.68;;;2.58;;
22812;SDS011;11573;51.334;3.244;2023-07-29T10:47:48;3.58;;;2.40;;
22812;SDS011;11573;51.334;3.244;2023-07-29T10:50:18;8.20;;;2.90;;
22812;SDS011;11573;51.334;3.244;2023-07-29T10:52:51;4.45;;;2.67;;
22812;SDS011;11573;51.334;3.244;2023-07-29T10:55:26;4.72;;;2.80;;
22812;SDS011;11573;51.334;3.244;2023-07-29T10:58:05;4.45;;;2.33;;
22812;SDS011;11573;51.334;3.244;2023-07-29T11:00:43;8.88;;;3.30;;
22812;SDS011;11573;51.334;3.244;2023-07-29T11:03:12;8.88;;;3.60;;
22812;SDS011;11573;51.334;3.244;2023-07-29T11:08:17;11.25;;;5.05;;
22812;SDS011;11573;51.334;3.244;2023-07-29T11:10:57;9.93;;;5.85;;
22812;SDS011;11573;51.334;3.244;2023-07-29T11:13:35;8.65;;;5.25;;
22812;SDS011;11573;51.334;3.244;2023-07-29T11:16:03;6.45;;;3.97;;
22812;SDS011;11573;51.334;3.244;2023-07-29T11:18:32;8.15;;;3.85;;
22812;SDS011;11573;51.334;3.244;2023-07-29T11:21:00;7.65;;;4.53;;
22812;SDS011;11573;51.334;3.244;2023-07-29T11:23:36;5.30;;;3.53;;
22812;SDS011;11573;51.334;3.244;2023-07-29T11:26:04;8.00;;;3.93;;
22812;SDS011;11573;51.334;3.244;2023-07-29T11:28:37;8.48;;;4.38;;
22812;SDS011;11573;51.334;3.244;2023-07-29T11:31:05;7.38;;;3.40;;
22812;SDS011;11573;51.334;3.244;2023-07-29T11:33:32;3.20;;;2.90;;
22812;SDS011;11573;51.334;3.244;2023-07-29T11:35:59;9.27;;;3.13;;
22812;SDS011;11573;51.334;3.244;2023-07-29T11:38:26;3.72;;;2.80;;
22812;SDS011;11573;51.334;3.244;2023-07-29T11:40:58;5.35;;;2.83;;
22812;SDS011;11573;51.334;3.244;2023-07-29T11:43:26;4.68;;;2.97;;
22812;SDS011;11573;51.334;3.244;2023-07-29T11:45:53;5.00;;;2.55;;
22812;SDS011;11573;51.334;3.244;2023-07-29T11:48:27;4.80;;;2.88;;
22812;SDS011;11573;51.334;3.244;2023-07-29T11:50:57;7.55;;;2.30;;
22812;SDS011;11573;51.334;3.244;2023-07-29T11:53:28;3.58;;;2.25;;
22812;SDS011;11573;51.334;3.244;2023-07-29T11:55:57;7.40;;;2.35;;
22812;SDS011;11573;51.334;3.244;2023-07-29T11:58:25;3.67;;;2.20;;
22812;SDS011;11573;51.334;3.244;2023-07-29T12:00:52;3.72;;;2.20;;
22812;SDS011;11573;51.334;3.244;2023-07-29T12:03:20;4.50;;;2.42;;
22812;SDS011;11573;51.334;3.244;2023-07-29T12:05:48;5.05;;;2.40;;
22812;SDS011;11573;51.334;3.244;2023-07-29T12:08:15;5.40;;;2.30;;
22812;SDS011;11573;51.334;3.244;2023-07-29T12:10:42;4.13;;;2.03;;
22812;SDS011;11573;51.334;3.244;2023-07-29T12:13:10;5.90;;;2.28;;
22812;SDS011;11573;51.334;3.244;2023-07-29T12:15:37;10.75;;;2.85;;
22812;SDS011;11573;51.334;3.244;2023-07-29T12:18:06;7.20;;;2.50;;
22812;SDS011;11573;51.334;3.244;2023-07-29T12:20:33;6.78;;;2.75;;
22812;SDS011;11573;51.334;3.244;2023-07-29T12:23:00;8.75;;;2.83;;
22812;SDS011;11573;51.334;3.244;2023-07-29T12:25:29;5.70;;;2.42;;
22812;SDS011;11573;51.334;3.244;2023-07-29T12:27:56;5.82;;;2.40;;
22812;SDS011;11573;51.334;3.244;2023-07-29T12:30:28;6.90;;;2.35;;
22812;SDS011;11573;51.334;3.244;2023-07-29T12:32:55;5.43;;;2.20;;
22812;SDS011;11573;51.334;3.244;2023-07-29T12:35:22;5.88;;;2.45;;
22812;SDS011;11573;51.334;3.244;2023-07-29T12:38:01;3.92;;;2.10;;
22812;SDS011;11573;51.334;3.244;2023-07-29T12:40:28;6.97;;;2.60;;
22812;SDS011;11573;51.334;3.244;2023-07-29T12:42:55;8.20;;;2.88;;
22812;SDS011;11573;51.334;3.244;2023-07-29T12:45:23;7.40;;;2.80;;
22812;SDS011;11573;51.334;3.244;2023-07-29T12:47:53;8.18;;;2.83;;
22812;SDS011;11573;51.334;3.244;2023-07-29T12:50:20;5.68;;;2.30;;
22812;SDS011;11573;51.334;3.244;2023-07-29T12:52:47;3.60;;;2.20;;
22812;SDS011;11573;51.334;3.244;2023-07-29T12:55:14;6.38;;;2.47;;
22812;SDS011;11573;51.334;3.244;2023-07-29T12:57:44;7.50;;;2.75;;
22812;SDS011;11573;51.334;3.244;2023-07-29T13:00:11;7.07;;;2.90;;
22812;SDS011;11573;51.334;3.244;2023-07-29T13:02:39;6.15;;;2.63;;
22812;SDS011;11573;51.334;3.244;2023-07-29T13:05:07;3.55;;;2.20;;
22812;SDS011;11573;51.334;3.244;2023-07-29T13:07:42;6.10;;;2.55;;
22812;SDS011;11573;51.334;3.244;2023-07-29T13:10:10;7.10;;;2.35;;
22812;SDS011;11573;51.334;3.244;2023-07-29T13:12:37;2.20;;;1.75;;
22812;SDS011;11573;51.334;3.244;2023-07-29T13:15:04;6.18;;;1.90;;
22812;SDS011;11573;51.334;3.244;2023-07-29T13:17:33;1.95;;;1.60;;
22812;SDS011;11573;51.334;3.244;2023-07-29T13:20:00;1.95;;;1.52;;
22812;SDS011;11573;51.334;3.244;2023-07-29T13:22:27;3.35;;;1.45;;
22812;SDS011;11573;51.334;3.244;2023-07-29T13:24:54;2.00;;;1.40;;
22812;SDS011;11573;51.334;3.244;2023-07-29T13:27:21;3.47;;;1.35;;
22812;SDS011;11573;51.334;3.244;2023-07-29T13:29:48;3.25;;;1.48;;
22812;SDS011;11573;51.334;3.244;2023-07-29T13:32:15;1.75;;;1.42;;
22812;SDS011;11573;51.334;3.244;2023-07-29T13:34:42;4.30;;;1.60;;
22812;SDS011;11573;51.334;3.244;2023-07-29T13:37:09;4.50;;;1.60;;
22812;SDS011;11573;51.334;3.244;2023-07-29T13:39:36;5.30;;;1.35;;
22812;SDS011;11573;51.334;3.244;2023-07-29T13:42:03;2.58;;;1.20;;
22812;SDS011;11573;51.334;3.244;2023-07-29T13:44:31;2.00;;;1.25;;
22812;SDS011;11573;51.334;3.244;2023-07-29T13:46:57;3.53;;;1.40;;
22812;SDS011;11573;51.334;3.244;2023-07-29T13:49:24;2.78;;;1.40;;
22812;SDS011;11573;51.334;3.244;2023-07-29T13:51:51;1.60;;;1.10;;
22812;SDS011;11573;51.334;3.244;2023-07-29T13:54:18;2.15;;;1.27;;
22812;SDS011;11573;51.334;3.244;2023-07-29T13:56:45;3.63;;;1.30;;
22812;SDS011;11573;51.334;3.244;2023-07-29T13:59:12;3.85;;;1.50;;
22812;SDS011;11573;51.334;3.244;2023-07-29T14:01:39;3.10;;;1.30;;
22812;SDS011;11573;51.334;3.244;2023-07-29T14:04:06;3.42;;;1.50;;
22812;SDS011;11573;51.334;3.244;2023-07-29T14:06:33;4.40;;;1.85;;
22812;SDS011;11573;51.334;3.244;2023-07-29T14:09:12;7.40;;;2.20;;
22812;SDS011;11573;51.334;3.244;2023-07-29T14:11:38;7.80;;;2.60;;
22812;SDS011;11573;51.334;3.244;2023-07-29T14:14:06;9.18;;;2.95;;
22812;SDS011;11573;51.334;3.244;2023-07-29T14:16:34;9.02;;;3.28;;
22812;SDS011;11573;51.334;3.244;2023-07-29T14:19:02;12.93;;;2.90;;
22812;SDS011;11573;51.334;3.244;2023-07-29T14:21:29;11.40;;;3.35;;
22812;SDS011;11573;51.334;3.244;2023-07-29T14:23:56;14.20;;;3.22;;
22812;SDS011;11573;51.334;3.244;2023-07-29T14:26:22;9.20;;;2.63;;
22812;SDS011;11573;51.334;3.244;2023-07-29T14:28:50;9.27;;;3.47;;
22812;SDS011;11573;51.334;3.244;2023-07-29T14:31:17;10.40;;;2.95;;
22812;SDS011;11573;51.334;3.244;2023-07-29T14:33:44;10.27;;;3.40;;
22812;SDS011;11573;51.334;3.244;2023-07-29T14:36:11;13.00;;;3.58;;
22812;SDS011;11573;51.334;3.244;2023-07-29T14:38:38;14.75;;;3.85;;
22812;SDS011;11573;51.334;3.244;2023-07-29T14:41:05;7.03;;;2.92;;
22812;SDS011;11573;51.334;3.244;2023-07-29T14:43:32;11.05;;;3.20;;
22812;SDS011;11573;51.334;3.244;2023-07-29T14:45:59;9.90;;;3.10;;
22812;SDS011;11573;51.334;3.244;2023-07-29T14:48:26;12.18;;;3.00;;
22812;SDS011;11573;51.334;3.244;2023-07-29T14:50:53;18.63;;;3.90;;
22812;SDS011;11573;51.334;3.244;2023-07-29T14:53:20;11.38;;;3.15;;
22812;SDS011;11573;51.334;3.244;2023-07-29T14:55:47;10.15;;;3.35;;
22812;SDS011;11573;51.334;3.244;2023-07-29T14:58:14;18.17;;;4.13;;
22812;SDS011;11573;51.334;3.244;2023-07-29T15:00:41;10.00;;;3.45;;
22812;SDS011;11573;51.334;3.244;2023-07-29T15:03:08;14.55;;;3.47;;